Time;durP1;ratioP1;P1;durP2;ratioP2;P2;SDS_P1;SDS_P2;PMS_P1;PMS_P2;Temp;Humidity;BMP_temperature;BMP_pressure;BME280_temperature;BME280_humidity;BME280_pressure;Samples;Min_cycle;Max_cycle;Signal;HPM_P1;HPM_P2
2022/05/03 04:41:12;;;;;;;10.63;6.75;;;;;;;8.38;78.63;100265.02;1766210;78;21073;-41
2022/05/03 04:43:38;;;;;;;9.28;6.47;;;;;;;8.52;78.64;100256.89;1773924;80;21524;-49
2022/05/03 04:46:05;;;;;;;12.65;6.95;;;;;;;8.67;78.62;100255.25;1770286;80;21061;-40
2022/05/03 04:48:31;;;;;;;10.32;6.42;;;;;;;8.85;78.01;100253.19;1773762;80;21038;-41
2022/05/03 04:50:58;;;;;;;9.93;5.72;;;;;;;9.03;77.62;100258.52;1770057;80;21152;-41
2022/05/03 04:53:24;;;;;;;8.10;5.15;;;;;;;9.16;75.79;100252.52;1788873;79;21015;-41
2022/05/03 04:55:50;;;;;;;14.30;6.22;;;;;;;9.27;74.44;100248.19;1787319;79;21100;-40
2022/05/03 04:58:17;;;;;;;8.70;5.47;;;;;;;9.36;74.41;100247.37;1793342;79;21022;-41
2022/05/03 05:00:45;;;;;;;15.13;5.75;;;;;;;9.45;73.25;100243.91;1713862;83;21663;-41
2022/05/03 05:03:11;;;;;;;9.58;6.17;;;;;;;9.55;72.45;100243.95;1712957;83;21047;-41
2022/05/03 05:05:38;;;;;;;13.15;6.20;;;;;;;9.69;71.88;100248.38;1762439;80;21075;-41
2022/05/03 05:08:06;;;;;;;15.55;6.58;;;;;;;9.79;71.71;100246.20;1760299;80;21035;-41
2022/05/03 05:10:33;;;;;;;11.70;5.70;;;;;;;9.91;71.57;100244.91;1774204;80;21032;-41
2022/05/03 05:13:00;;;;;;;15.72;5.47;;;;;;;10.05;70.54;100243.21;1775795;80;21024;-41
2022/05/03 05:15:28;;;;;;;9.05;6.37;;;;;;;10.17;69.19;100241.05;1774147;79;21010;-41
2022/05/03 05:17:57;;;;;;;15.05;5.85;;;;;;;10.32;69.32;100245.42;1794222;79;21573;-41
2022/05/03 05:20:25;;;;;;;14.38;6.25;;;;;;;10.48;68.53;100240.63;1741998;81;21399;-42
2022/05/03 05:22:52;;;;;;;12.28;5.35;;;;;;;10.65;67.42;100240.19;1724778;82;21019;-42
2022/05/03 05:25:19;;;;;;;12.95;4.62;;;;;;;10.80;66.53;100235.81;1696853;83;21095;-43
2022/05/03 05:27:45;;;;;;;11.38;6.50;;;;;;;10.98;65.63;100234.46;1712086;83;20981;-41
2022/05/03 05:30:12;;;;;;;8.03;5.20;;;;;;;11.11;65.24;100233.98;1709837;82;21597;-41
2022/05/03 05:32:39;;;;;;;19.70;6.15;;;;;;;11.26;63.71;100228.70;1714935;81;20985;-43
2022/05/03 05:35:07;;;;;;;10.58;5.92;;;;;;;11.37;63.08;100228.22;1713352;83;20993;-41
2022/05/03 05:37:34;;;;;;;15.90;5.30;;;;;;;11.44;62.71;100229.93;1714608;83;21006;-41
2022/05/03 05:40:00;;;;;;;10.80;5.15;;;;;;;11.52;62.47;100222.02;1710131;83;21014;-41
2022/05/03 05:42:27;;;;;;;9.35;4.97;;;;;;;11.62;62.02;100230.72;1780415;80;21014;-40
2022/05/03 05:44:53;;;;;;;8.63;5.12;;;;;;;11.73;61.41;100226.29;1789602;79;20954;-41
2022/05/03 05:47:20;;;;;;;9.40;4.92;;;;;;;11.84;61.30;100225.83;1795571;79;20959;-41
2022/05/03 05:49:46;;;;;;;7.42;4.72;;;;;;;11.99;60.90;100215.21;1782764;79;20994;-41
2022/05/03 05:55:12;;;;;;;11.38;5.22;;;;;;;12.34;60.19;100212.76;1772891;81;20990;-47
2022/05/03 05:57:39;;;;;;;12.45;4.80;;;;;;;12.56;59.93;100218.69;1774981;80;21045;-41
2022/05/03 06:00:07;;;;;;;10.40;4.53;;;;;;;12.75;58.71;100211.05;1782477;79;21089;-42
2022/05/03 06:02:36;;;;;;;10.00;5.17;;;;;;;12.93;58.48;100207.39;1789087;80;21025;-48
2022/05/03 06:05:03;;;;;;;10.15;5.12;;;;;;;13.11;57.18;100207.63;1786717;80;21577;-48
2022/05/03 06:07:31;;;;;;;12.68;5.15;;;;;;;13.24;57.29;100202.67;1786035;80;21373;-48
2022/05/03 06:09:58;;;;;;;11.73;4.95;;;;;;;13.42;57.00;100202.02;1783168;80;21089;-41
2022/05/03 06:12:25;;;;;;;9.75;5.25;;;;;;;13.58;56.17;100199.62;1758491;81;20993;-42
2022/05/03 06:14:52;;;;;;;10.80;5.75;;;;;;;13.68;54.07;100201.20;1767564;79;21037;-40
2022/05/03 06:17:18;;;;;;;14.65;6.12;;;;;;;13.74;54.30;100195.89;1783300;80;21039;-49
2022/05/03 06:19:45;;;;;;;14.50;4.67;;;;;;;13.84;54.60;100193.97;1779620;80;21105;-44
2022/05/03 06:22:12;;;;;;;8.80;4.58;;;;;;;13.99;54.12;100195.52;1792758;79;21645;-41
2022/05/03 06:24:39;;;;;;;12.07;4.90;;;;;;;14.14;53.58;100189.98;1779849;80;21009;-48
2022/05/03 06:27:06;;;;;;;11.68;5.00;;;;;;;14.31;53.42;100181.37;1788035;80;20997;-49
2022/05/03 06:29:33;;;;;;;8.23;5.03;;;;;;;14.47;52.70;100191.22;1781591;80;21072;-41
2022/05/03 06:31:59;;;;;;;19.65;4.78;;;;;;;14.62;52.71;100189.65;1788430;79;21084;-48
2022/05/03 06:34:26;;;;;;;11.63;4.55;;;;;;;14.77;52.45;100191.56;1789616;79;21398;-49
2022/05/03 06:36:53;;;;;;;14.65;4.78;;;;;;;14.89;50.99;100192.19;1782245;78;21080;-48
2022/05/03 06:39:19;;;;;;;7.70;4.70;;;;;;;15.01;50.60;100187.13;1787175;79;20993;-48
2022/05/03 06:41:46;;;;;;;14.68;3.98;;;;;;;15.09;50.28;100186.55;1777763;79;21014;-48
2022/05/03 06:44:13;;;;;;;10.75;5.03;;;;;;;15.20;50.23;100191.61;1773297;79;21034;-48
2022/05/03 06:46:40;;;;;;;8.60;4.70;;;;;;;15.31;49.83;100184.80;1771885;80;21031;-48
2022/05/03 06:49:07;;;;;;;10.10;4.83;;;;;;;15.40;49.70;100185.45;1773225;79;20948;-48
2022/05/03 06:51:34;;;;;;;13.62;4.90;;;;;;;15.52;50.21;100182.13;1768632;81;21637;-48
2022/05/03 06:54:02;;;;;;;9.23;4.40;;;;;;;15.61;47.95;100176.22;1771611;80;20976;-49
2022/05/03 06:56:35;;;;;;;11.40;4.05;;;;;;;15.69;47.60;100174.74;1771447;80;21043;-41
2022/05/03 06:58:57;;;;;;;9.30;3.62;;;;;;;15.77;47.54;100171.50;1768604;81;21011;-41
2022/05/03 07:01:23;;;;;;;9.58;4.05;;;;;;;15.89;47.81;100176.48;1772675;80;21063;-41
2022/05/03 07:03:50;;;;;;;10.90;4.00;;;;;;;16.03;47.47;100166.91;1770290;81;21539;-48
2022/05/03 07:06:21;;;;;;;4.00;3.02;;;;;;;16.16;47.91;100174.93;1770286;81;21074;-41
2022/05/03 07:08:45;;;;;;;9.40;3.25;;;;;;;16.28;46.29;100167.16;1770154;81;21047;-41
2022/05/03 07:11:11;;;;;;;12.30;3.75;;;;;;;16.40;46.60;100170.80;1773021;81;21109;-48
2022/05/03 07:13:37;;;;;;;3.42;2.92;;;;;;;16.54;46.99;100166.95;1778503;80;21439;-49
2022/05/03 07:16:05;;;;;;;12.30;3.12;;;;;;;16.69;46.10;100162.11;1771215;80;21043;-41
2022/05/03 07:23:48;;;;;;;16.62;4.03;;;;;;;17.02;45.52;100149.77;1767510;81;21025;-40
2022/05/03 07:26:14;;;;;;;4.85;2.62;;;;;;;17.17;44.37;100148.94;1700540;84;21109;-41
2022/05/03 07:28:41;;;;;;;7.60;3.02;;;;;;;17.30;43.39;100150.30;1691245;84;21009;-48
2022/05/03 07:31:08;;;;;;;9.08;3.45;;;;;;;17.45;43.28;100143.23;1747767;80;21048;-49
2022/05/03 07:33:35;;;;;;;5.85;2.98;;;;;;;17.61;43.25;100142.73;1739203;82;20989;-41
2022/05/03 07:36:03;;;;;;;9.95;3.30;;;;;;;17.76;42.71;100142.30;1767749;81;21043;-43
2022/05/03 07:38:29;;;;;;;7.53;3.25;;;;;;;17.93;42.27;100147.05;1777961;81;20998;-41
2022/05/03 07:40:56;;;;;;;7.75;3.15;;;;;;;18.13;42.72;100141.95;1784483;80;21093;-49
2022/05/03 07:43:23;;;;;;;3.37;2.67;;;;;;;18.31;40.39;100132.52;1785630;80;21558;-48
2022/05/03 07:45:49;;;;;;;7.20;2.40;;;;;;;18.42;38.65;100134.80;1785820;80;21022;-41
2022/05/03 07:48:16;;;;;;;4.92;2.20;;;;;;;18.43;38.38;100131.23;1785872;80;20991;-41
2022/05/03 07:50:44;;;;;;;3.55;2.40;;;;;;;18.48;38.69;100127.97;1785495;80;21026;-48
2022/05/03 07:53:11;;;;;;;2.85;2.17;;;;;;;18.66;38.46;100125.13;1785692;80;20995;-49
2022/05/03 07:55:38;;;;;;;5.05;2.10;;;;;;;18.81;37.90;100128.59;1784570;80;21113;-49
2022/05/03 07:58:05;;;;;;;5.78;2.20;;;;;;;18.85;36.45;100127.10;1786100;80;20986;-43
2022/05/03 08:00:31;;;;;;;5.67;2.17;;;;;;;18.77;36.29;100126.96;1786119;80;21066;-42
2022/05/03 08:02:59;;;;;;;1.98;1.62;;;;;;;18.59;36.77;100127.12;1786637;80;20991;-48
2022/05/03 08:05:25;;;;;;;2.72;1.57;;;;;;;18.44;36.98;100131.20;1786717;80;21053;-49
2022/05/03 08:07:52;;;;;;;7.95;2.12;;;;;;;18.28;35.54;100132.64;1776365;79;21631;-41
2022/05/03 08:10:18;;;;;;;5.30;2.22;;;;;;;18.17;36.34;100129.03;1780237;80;21029;-41
2022/05/03 08:12:50;;;;;;;3.00;1.95;;;;;;;18.14;37.07;100122.96;1724098;82;20983;-41
2022/05/03 08:15:13;;;;;;;4.97;2.27;;;;;;;18.19;36.25;100124.53;1788789;79;21057;-41
2022/05/03 08:17:40;;;;;;;5.75;2.22;;;;;;;18.23;36.60;100121.34;1752711;81;20973;-41
2022/05/03 08:20:07;;;;;;;4.70;1.80;;;;;;;18.28;35.85;100118.08;1785850;80;21041;-40
2022/05/03 08:22:34;;;;;;;11.85;2.00;;;;;;;18.27;35.71;100121.19;1779394;80;21033;-42
2022/05/03 08:25:01;;;;;;;8.53;1.90;;;;;;;18.31;35.50;100115.30;1783916;80;20935;-40
2022/05/03 08:27:28;;;;;;;3.25;1.92;;;;;;;18.35;34.99;100109.00;1780704;80;21618;-42
2022/05/03 08:29:54;;;;;;;6.22;1.87;;;;;;;18.36;35.67;100116.02;1783751;80;21001;-40
2022/05/03 08:32:21;;;;;;;6.58;1.98;;;;;;;18.32;35.00;100113.95;1791740;80;21526;-42
2022/05/03 08:34:48;;;;;;;8.35;2.10;;;;;;;18.26;34.85;100110.20;1797746;79;21369;-41
2022/05/03 08:42:45;;;;;;;3.52;1.98;;;;;;;18.13;35.43;100106.67;1776523;79;28128;-41
2022/05/03 08:45:11;;;;;;;8.55;3.15;;;;;;;18.17;34.86;100103.88;1775794;79;21446;-42
2022/05/03 08:47:38;;;;;;;5.20;2.45;;;;;;;18.19;35.07;100108.65;1795662;79;21135;-42
2022/05/03 08:50:09;;;;;;;6.42;2.33;;;;;;;18.17;35.01;100103.02;1798461;79;21048;-41
2022/05/03 08:52:53;;;;;;;3.67;2.08;;;;;;;18.22;35.29;100102.41;1790854;79;20990;-41
2022/05/03 08:55:19;;;;;;;2.77;2.00;;;;;;;18.26;34.63;100100.03;1724967;83;21052;-41
2022/05/03 08:57:45;;;;;;;9.05;1.90;;;;;;;18.30;34.24;100097.70;1794687;79;21477;-41
2022/05/03 09:00:14;;;;;;;3.98;1.52;;;;;;;18.30;35.12;100102.53;1800006;79;21539;-42
2022/05/03 09:02:46;;;;;;;5.50;1.80;;;;;;;18.31;34.35;100095.45;1792437;79;20985;-41
2022/05/03 09:05:13;;;;;;;9.53;2.05;;;;;;;18.27;33.94;100093.39;1790729;79;21638;-42
2022/05/03 09:07:52;;;;;;;8.53;2.80;;;;;;;18.24;34.74;100093.48;1786862;80;20987;-48
2022/05/03 09:10:31;;;;;;;9.68;1.98;;;;;;;18.22;34.00;100092.67;1797593;79;20991;-40
2022/05/03 09:13:21;;;;;;;4.00;1.60;;;;;;;18.25;33.77;100096.52;1786010;80;20978;-40
2022/05/03 09:15:55;;;;;;;4.67;1.90;;;;;;;18.33;33.68;100089.20;1781853;80;21577;-41
2022/05/03 09:18:26;;;;;;;7.70;2.10;;;;;;;18.44;34.83;100091.91;1773786;80;21041;-40
2022/05/03 09:23:47;;;;;;;5.15;1.87;;;;;;;18.52;34.74;100085.42;1772505;80;21080;-39
2022/05/03 09:26:25;;;;;;;2.52;1.32;;;;;;;18.64;33.66;100084.12;1784081;79;21639;-40
2022/05/03 09:29:08;;;;;;;4.50;1.75;;;;;;;18.86;34.51;100080.26;1785945;80;21013;-40
2022/05/03 09:31:47;;;;;;;3.52;1.72;;;;;;;19.16;33.50;100070.27;1785665;80;21085;-40
2022/05/03 09:34:28;;;;;;;2.72;1.72;;;;;;;19.51;34.33;100058.72;1722066;83;20947;-40
2022/05/03 09:37:02;;;;;;;3.95;1.47;;;;;;;19.82;32.01;100059.68;1785880;80;21068;-41
2022/05/03 09:39:33;;;;;;;5.65;1.57;;;;;;;19.97;31.29;100052.41;1720527;83;21009;-47
2022/05/03 09:42:13;;;;;;;2.83;1.57;;;;;;;19.98;31.25;100042.18;1709519;83;21122;-46
2022/05/03 09:44:54;;;;;;;3.47;1.98;;;;;;;20.02;32.16;100047.77;1702379;84;21479;-47
2022/05/03 09:47:24;;;;;;;11.55;2.08;;;;;;;20.02;32.01;100050.89;1718641;83;21087;-40
2022/05/03 09:49:51;;;;;;;3.10;1.95;;;;;;;19.92;32.32;100046.42;1703785;84;20994;-47
2022/05/03 09:52:28;;;;;;;7.30;2.00;;;;;;;19.89;32.43;100040.80;1718523;83;21089;-40
2022/05/03 09:55:00;;;;;;;5.87;1.85;;;;;;;19.90;32.31;100046.50;1704212;84;20986;-41
2022/05/03 09:57:28;;;;;;;8.78;1.77;;;;;;;19.83;32.17;100039.73;1714327;83;21048;-47
2022/05/03 09:59:55;;;;;;;3.45;2.15;;;;;;;19.71;32.07;100044.66;1716466;83;21033;-47
2022/05/03 10:02:27;;;;;;;4.97;1.70;;;;;;;19.60;32.94;100035.84;1719427;83;21081;-41
2022/05/03 10:13:33;;;;;;;2.47;1.75;;;;;;;19.96;32.68;100022.81;1800634;79;22988;-47
2022/05/03 10:21:37;;;;;;;4.45;1.60;;;;;;;20.29;30.98;100023.58;1735247;82;21781;-47
2022/05/03 10:24:11;;;;;;;3.27;1.75;;;;;;;20.14;30.17;100007.41;1737204;82;21610;-47
2022/05/03 10:27:02;;;;;;;8.05;2.22;;;;;;;20.18;30.91;100006.81;1736963;82;21050;-47
2022/05/03 10:29:32;;;;;;;6.55;2.05;;;;;;;20.22;31.12;99999.55;1737252;82;21425;-40
2022/05/03 10:32:10;;;;;;;3.20;1.80;;;;;;;20.24;30.90;100009.67;1736781;82;21637;-40
2022/05/03 10:34:56;;;;;;;4.75;1.80;;;;;;;20.46;29.99;100006.45;1737415;82;20995;-41
2022/05/03 10:37:33;;;;;;;4.85;2.30;;;;;;;20.62;28.44;100000.84;1737140;82;21041;-48
2022/05/03 10:40:12;;;;;;;3.87;1.50;;;;;;;20.79;28.86;99995.22;1737589;82;21027;-40
2022/05/03 10:42:39;;;;;;;4.17;1.60;;;;;;;21.08;29.12;99996.50;1737903;82;21493;-48
2022/05/03 10:45:12;;;;;;;2.22;1.40;;;;;;;21.25;26.95;99989.90;1737935;82;21522;-48
2022/05/03 10:47:53;;;;;;;4.05;1.65;;;;;;;21.07;27.35;99990.33;1737659;82;21046;-48
2022/05/03 10:50:33;;;;;;;4.80;1.85;;;;;;;21.26;28.17;99993.80;1737502;82;21041;-48
2022/05/03 10:53:05;;;;;;;1.87;1.50;;;;;;;21.37;27.09;99993.79;1718807;82;21026;-48
2022/05/03 10:55:41;;;;;;;2.83;1.35;;;;;;;21.68;28.20;99983.80;1737381;82;21046;-40
2022/05/03 10:58:31;;;;;;;3.52;1.60;;;;;;;22.16;28.37;99984.45;1736698;82;21573;-48
2022/05/03 11:01:10;;;;;;;3.15;2.25;;;;;;;22.71;27.28;99985.46;1736815;82;21042;-41
2022/05/03 11:03:54;;;;;;;4.22;1.82;;;;;;;23.41;26.40;99975.79;1705048;84;21095;-41
2022/05/03 11:06:26;;;;;;;3.47;1.82;;;;;;;23.41;26.40;99975.79;1696196;84;21060;-48
2022/05/03 11:11:43;;;;;;;6.45;2.00;;;;;;;22.95;25.95;99970.41;1700976;82;21099;-48
2022/05/03 11:14:24;;;;;;;3.15;1.70;;;;;;;22.65;26.49;99964.47;1656124;87;21065;-48
2022/05/03 11:17:08;;;;;;;1.85;1.62;;;;;;;22.50;27.31;99962.66;1737150;82;21081;-40
2022/05/03 11:19:48;;;;;;;1.90;1.40;;;;;;;22.50;27.31;99962.66;1744698;82;21651;-42
2022/05/03 11:22:18;;;;;;;5.50;1.80;;;;;;;22.52;27.48;99964.77;1744553;82;21080;-42
2022/05/03 11:24:49;;;;;;;2.83;1.60;;;;;;;22.44;27.27;99962.97;1743577;82;21030;-49
2022/05/03 11:27:16;;;;;;;5.17;1.82;;;;;;;22.23;27.30;99959.67;1743740;82;21001;-49
2022/05/03 11:29:47;;;;;;;3.17;1.45;;;;;;;21.94;27.88;99955.84;1744022;82;21525;-48
2022/05/03 11:32:16;;;;;;;6.05;2.12;;;;;;;21.75;28.92;99951.95;1743227;82;21486;-41
2022/05/03 11:34:43;;;;;;;4.10;1.75;;;;;;;21.77;29.51;99944.73;1743688;82;20998;-48
2022/05/03 11:37:10;;;;;;;3.17;1.77;;;;;;;21.79;29.32;99946.36;1743149;82;21009;-41
2022/05/03 11:39:36;;;;;;;5.28;1.65;;;;;;;21.72;28.82;99938.78;1743649;82;20989;-48
2022/05/03 11:42:11;;;;;;;4.17;1.80;;;;;;;21.62;29.17;99941.52;1743355;82;21139;-48
2022/05/03 11:44:44;;;;;;;6.62;2.05;;;;;;;21.53;28.73;99942.86;1743502;82;21061;-43
2022/05/03 11:47:11;;;;;;;8.18;2.40;;;;;;;21.31;28.74;99927.58;1743604;82;21107;-39
2022/05/03 11:49:38;;;;;;;5.97;2.75;;;;;;;21.13;29.93;99931.52;1743333;82;21006;-47
2022/05/03 11:57:40;;;;;;;2.42;2.17;;;;;;;20.89;30.00;99928.73;1742910;82;21052;-39
2022/05/03 12:00:12;;;;;;;2.77;2.07;;;;;;;20.73;30.96;99916.16;1743403;82;20982;-47
2022/05/03 12:02:42;;;;;;;2.33;1.95;;;;;;;20.59;31.79;99919.95;1742925;82;21025;-47
2022/05/03 12:05:20;;;;;;;2.70;2.25;;;;;;;20.52;30.94;99919.81;1742600;82;21064;-40
2022/05/03 12:07:56;;;;;;;10.10;2.30;;;;;;;20.49;31.59;99919.98;1743112;82;21001;-47
2022/05/03 12:10:33;;;;;;;6.62;1.80;;;;;;;20.52;31.55;99921.14;1743180;82;21089;-40
2022/05/03 12:13:21;;;;;;;10.60;2.58;;;;;;;20.52;31.65;99910.98;1734621;81;21053;-48
2022/05/03 12:16:01;;;;;;;6.15;1.92;;;;;;;20.45;30.89;99921.91;1702575;82;21698;-48
2022/05/03 12:18:33;;;;;;;;;;;;;;;20.32;30.99;99917.20;1712099;82;21017;-48
2022/05/03 12:21:08;;;;;;;4.90;1.98;;;;;;;20.20;31.09;99913.31;1732746;82;20435;-44
2022/05/03 12:23:40;;;;;;;5.97;1.62;;;;;;;20.08;31.28;99913.88;1736424;82;21618;-41
